createdAt,value
2019-03-26T00:00:29.393Z,3.60
2019-03-26T00:01:34.600Z,3.70
2019-03-26T00:02:41.502Z,3.70
2019-03-26T00:03:47.007Z,3.80
2019-03-26T00:04:52.171Z,3.80
2019-03-26T00:05:57.427Z,3.80
2019-03-26T00:07:02.848Z,3.80
2019-03-26T00:08:07.919Z,3.80
2019-03-26T00:09:13.054Z,3.80
2019-03-26T00:10:18.223Z,3.80
2019-03-26T00:11:23.298Z,3.80
2019-03-26T00:12:29.915Z,3.80
2019-03-26T00:13:35.011Z,3.80
2019-03-26T00:14:40.134Z,3.80
2019-03-26T00:15:45.568Z,3.80
2019-03-26T00:16:51.775Z,3.90
2019-03-26T00:17:56.897Z,3.90
2019-03-26T00:19:01.990Z,3.80
2019-03-26T00:20:07.256Z,3.90
2019-03-26T00:21:13.404Z,3.90
2019-03-26T00:22:18.477Z,3.90
2019-03-26T00:23:23.616Z,3.80
2019-03-26T00:24:28.762Z,3.80
2019-03-26T00:25:34.098Z,3.80
2019-03-26T00:26:39.195Z,3.80
2019-03-26T00:27:44.322Z,3.90
2019-03-26T00:28:49.428Z,3.90
2019-03-26T00:29:54.602Z,3.90
2019-03-26T00:30:59.707Z,3.80
2019-03-26T00:32:04.836Z,3.80
2019-03-26T00:33:09.981Z,3.80
2019-03-26T00:34:19.499Z,3.80
2019-03-26T00:35:22.319Z,3.80
2019-03-26T00:36:28.664Z,3.80
2019-03-26T00:37:33.824Z,3.80
2019-03-26T00:38:39.073Z,3.80
2019-03-26T00:39:44.240Z,3.80
2019-03-26T00:40:49.383Z,3.80
2019-03-26T00:41:54.520Z,3.80
2019-03-26T00:42:59.644Z,3.80
2019-03-26T00:44:04.860Z,3.80
2019-03-26T00:45:10.361Z,3.70
2019-03-26T00:46:15.575Z,3.70
2019-03-26T00:47:20.697Z,3.70
2019-03-26T00:48:26.183Z,3.70
2019-03-26T00:49:31.571Z,3.80
2019-03-26T00:50:36.679Z,3.80
2019-03-26T00:51:41.825Z,3.80
2019-03-26T00:52:46.933Z,3.80
2019-03-26T00:53:52.080Z,3.70
2019-03-26T00:54:57.691Z,3.70
2019-03-26T00:56:02.861Z,3.70
2019-03-26T00:57:07.992Z,3.70
2019-03-26T00:58:13.157Z,3.70
2019-03-26T00:59:18.305Z,3.70
2019-03-26T01:00:37.806Z,3.70
2019-03-26T01:01:42.914Z,3.70
2019-03-26T01:02:48.054Z,3.70
2019-03-26T01:03:54.970Z,3.70
2019-03-26T01:05:00.092Z,3.70
2019-03-26T01:06:05.239Z,3.70
2019-03-26T01:07:10.383Z,3.70
2019-03-26T01:08:15.767Z,3.70
2019-03-26T01:09:21.090Z,3.70
2019-03-26T01:10:28.511Z,3.70
2019-03-26T01:11:35.104Z,3.70
2019-03-26T01:12:40.199Z,3.70
2019-03-26T01:13:45.348Z,3.70
2019-03-26T01:14:50.641Z,3.70
2019-03-26T01:15:55.755Z,3.70
2019-03-26T01:17:00.894Z,3.70
2019-03-26T01:18:06.173Z,3.70
2019-03-26T01:19:11.303Z,3.70
2019-03-26T01:20:16.420Z,3.60
2019-03-26T01:21:22.344Z,3.60
2019-03-26T01:22:27.502Z,3.60
2019-03-26T01:23:32.596Z,3.50
2019-03-26T01:24:37.737Z,3.60
2019-03-26T01:25:42.950Z,3.50
2019-03-26T01:26:48.135Z,3.50
2019-03-26T01:27:53.302Z,3.50
2019-03-26T01:28:58.506Z,3.50
2019-03-26T01:30:03.848Z,3.40
2019-03-26T01:31:08.975Z,3.40
2019-03-26T01:32:14.089Z,3.40
2019-03-26T01:33:19.262Z,3.40
2019-03-26T01:34:24.422Z,3.50
2019-03-26T01:35:29.543Z,3.50
2019-03-26T01:36:34.707Z,3.50
2019-03-26T01:37:39.826Z,3.50
2019-03-26T01:38:45.539Z,3.50
2019-03-26T01:39:50.676Z,3.50
2019-03-26T01:40:55.822Z,3.50
2019-03-26T01:42:01.992Z,3.40
2019-03-26T01:43:07.199Z,3.30
2019-03-26T01:44:12.280Z,3.30
2019-03-26T01:45:18.434Z,3.30
2019-03-26T01:46:23.544Z,3.30
2019-03-26T01:47:28.849Z,3.30
2019-03-26T01:48:33.975Z,3.30
2019-03-26T01:49:39.121Z,3.30
2019-03-26T01:50:44.237Z,3.30
2019-03-26T01:51:49.395Z,3.20
2019-03-26T01:52:54.479Z,3.20
2019-03-26T01:53:59.587Z,3.10
2019-03-26T01:55:05.427Z,3.10
2019-03-26T01:56:10.576Z,3.10
2019-03-26T01:57:15.760Z,3.10
2019-03-26T01:58:20.870Z,3.10
2019-03-26T01:59:25.967Z,3.20
2019-03-26T02:00:31.166Z,3.10
2019-03-26T02:01:36.270Z,3.10
2019-03-26T02:02:41.440Z,3.10
2019-03-26T02:03:46.676Z,3.10
2019-03-26T02:04:59.858Z,3.10
2019-03-26T02:05:58.905Z,3.10
2019-03-26T02:07:04.071Z,3.10
2019-03-26T02:08:09.149Z,3.10
2019-03-26T02:09:14.325Z,3.10
2019-03-26T02:10:19.512Z,3.10
2019-03-26T02:11:24.599Z,3.00
2019-03-26T02:12:29.726Z,3.00
2019-03-26T02:13:35.189Z,3.00
2019-03-26T02:14:40.433Z,3.00
2019-03-26T02:15:45.534Z,3.00
2019-03-26T02:16:51.812Z,2.90
2019-03-26T02:17:57.121Z,2.90
2019-03-26T02:19:02.304Z,2.90
2019-03-26T02:20:07.753Z,2.90
2019-03-26T02:21:12.867Z,2.90
2019-03-26T02:22:17.976Z,3.00
2019-03-26T02:23:23.108Z,2.90
2019-03-26T02:24:28.243Z,2.90
2019-03-26T02:25:33.476Z,2.90
2019-03-26T02:26:38.611Z,3.00
2019-03-26T02:27:43.792Z,3.00
2019-03-26T02:28:48.955Z,3.00
2019-03-26T02:29:54.087Z,3.00
2019-03-26T02:30:59.194Z,3.00
2019-03-26T02:32:04.417Z,3.00
2019-03-26T02:33:09.531Z,2.90
2019-03-26T02:34:14.671Z,2.90
2019-03-26T02:35:19.993Z,2.90
2019-03-26T02:36:25.162Z,2.90
2019-03-26T02:37:30.327Z,2.90
2019-03-26T02:38:35.515Z,2.90
2019-03-26T02:39:40.619Z,2.80
2019-03-26T02:40:45.720Z,2.80
2019-03-26T02:41:50.844Z,2.80
2019-03-26T02:42:56.069Z,2.80
2019-03-26T02:44:02.141Z,2.80
2019-03-26T02:45:07.479Z,2.80
2019-03-26T02:46:12.589Z,2.80
2019-03-26T02:47:17.703Z,2.70
2019-03-26T02:48:22.887Z,2.70
2019-03-26T02:49:28.003Z,2.60
2019-03-26T02:50:33.232Z,2.70
2019-03-26T02:51:38.374Z,2.60
2019-03-26T02:52:43.483Z,2.60
2019-03-26T02:53:48.695Z,2.60
2019-03-26T02:54:53.831Z,2.50
2019-03-26T02:55:58.936Z,2.50
2019-03-26T02:57:04.026Z,2.50
2019-03-26T02:58:09.194Z,2.50
2019-03-26T02:59:14.302Z,2.50
2019-03-26T03:00:19.418Z,2.50
2019-03-26T03:01:24.556Z,2.50
2019-03-26T03:02:29.743Z,2.50
2019-03-26T03:03:34.996Z,2.40
2019-03-26T03:04:40.112Z,2.40
2019-03-26T03:05:45.438Z,2.30
2019-03-26T03:06:50.641Z,2.30
2019-03-26T03:07:55.719Z,2.30
2019-03-26T03:09:00.828Z,2.30
2019-03-26T03:10:06.761Z,2.20
2019-03-26T03:11:11.934Z,2.20
2019-03-26T03:12:17.117Z,2.20
2019-03-26T03:13:22.211Z,2.20
2019-03-26T03:14:27.322Z,2.20
2019-03-26T03:15:32.435Z,2.10
2019-03-26T03:16:37.574Z,2.10
2019-03-26T03:17:42.760Z,2.10
2019-03-26T03:18:47.925Z,2.20
2019-03-26T03:19:53.085Z,2.20
2019-03-26T03:20:58.342Z,2.20
2019-03-26T03:22:03.585Z,2.20
2019-03-26T03:23:08.823Z,2.20
2019-03-26T03:24:14.856Z,2.20
2019-03-26T03:25:19.964Z,2.20
2019-03-26T03:26:25.195Z,2.40
2019-03-26T03:27:30.423Z,2.50
2019-03-26T03:28:35.558Z,2.50
2019-03-26T03:29:40.748Z,2.50
2019-03-26T03:30:45.943Z,2.50
2019-03-26T03:31:51.081Z,2.40
2019-03-26T03:32:56.215Z,2.40
2019-03-26T03:34:01.350Z,2.30
2019-03-26T03:35:07.156Z,2.30
2019-03-26T03:36:12.355Z,2.30
2019-03-26T03:37:17.468Z,2.20
2019-03-26T03:38:22.566Z,2.20
2019-03-26T03:39:27.686Z,2.20
2019-03-26T03:40:32.918Z,2.20
2019-03-26T03:41:38.245Z,2.20
2019-03-26T03:42:43.367Z,2.10
2019-03-26T03:43:48.506Z,2.10
2019-03-26T03:44:53.851Z,2.10
2019-03-26T03:45:59.120Z,2.10
2019-03-26T03:47:04.730Z,2.00
2019-03-26T03:48:10.399Z,2.00
2019-03-26T03:49:17.241Z,2.00
2019-03-26T03:50:24.288Z,1.90
2019-03-26T03:51:29.953Z,1.90
2019-03-26T03:52:39.436Z,1.90
2019-03-26T03:53:44.737Z,1.90
2019-03-26T03:54:50.959Z,1.80
2019-03-26T03:55:58.413Z,1.80
2019-03-26T03:57:04.198Z,1.80
2019-03-26T03:58:09.402Z,1.80
2019-03-26T03:59:14.962Z,1.80
2019-03-26T04:00:36.158Z,1.80
2019-03-26T04:01:41.293Z,1.80
2019-03-26T04:02:46.407Z,1.80
2019-03-26T04:03:51.581Z,1.80
2019-03-26T04:04:56.742Z,1.80
2019-03-26T04:06:09.539Z,1.80
2019-03-26T04:07:08.707Z,1.70
2019-03-26T04:08:13.856Z,1.70
2019-03-26T04:09:18.963Z,1.70
2019-03-26T04:10:24.186Z,1.70
2019-03-26T04:11:29.349Z,1.70
2019-03-26T04:12:34.452Z,1.80
2019-03-26T04:13:39.669Z,1.80
2019-03-26T04:14:44.774Z,1.80
2019-03-26T04:15:50.012Z,1.80
2019-03-26T04:16:55.275Z,1.80
2019-03-26T04:18:00.403Z,1.80
2019-03-26T04:19:05.532Z,1.90
2019-03-26T04:20:12.332Z,1.80
2019-03-26T04:21:17.522Z,1.80
2019-03-26T04:22:22.734Z,1.90
2019-03-26T04:23:27.925Z,1.90
2019-03-26T04:24:33.033Z,1.90
2019-03-26T04:25:38.170Z,1.90
2019-03-26T04:26:43.464Z,1.90
2019-03-26T04:27:49.557Z,1.90
2019-03-26T04:28:54.778Z,1.90
2019-03-26T04:29:59.917Z,1.90
2019-03-26T04:31:05.115Z,1.90
2019-03-26T04:32:10.213Z,1.80
2019-03-26T04:33:15.525Z,1.80
2019-03-26T04:34:22.676Z,1.90
2019-03-26T04:35:27.516Z,1.90
2019-03-26T04:36:32.654Z,1.90
2019-03-26T04:37:37.761Z,1.90
2019-03-26T04:38:42.856Z,1.90
2019-03-26T04:39:47.992Z,1.90
2019-03-26T04:40:53.072Z,2.00
2019-03-26T04:41:58.228Z,1.90
2019-03-26T04:43:03.320Z,1.90
2019-03-26T04:44:08.451Z,1.90
2019-03-26T04:45:14.165Z,1.90
2019-03-26T04:46:19.325Z,1.80
2019-03-26T04:47:24.450Z,1.80
2019-03-26T04:48:29.585Z,1.90
2019-03-26T04:49:34.677Z,1.90
2019-03-26T04:50:39.844Z,1.90
2019-03-26T04:51:44.955Z,1.90
2019-03-26T04:52:50.069Z,1.90
2019-03-26T04:53:55.575Z,1.90
2019-03-26T04:55:00.716Z,1.90
2019-03-26T04:56:05.979Z,1.90
2019-03-26T04:57:11.056Z,1.90
2019-03-26T04:58:16.224Z,1.90
2019-03-26T04:59:21.374Z,1.90
2019-03-26T05:00:26.499Z,1.90
2019-03-26T05:01:31.661Z,1.90
2019-03-26T05:02:36.846Z,1.90
2019-03-26T05:03:42.086Z,1.90
2019-03-26T05:04:47.394Z,2.00
2019-03-26T05:05:52.540Z,2.10
2019-03-26T05:06:57.703Z,2.10
2019-03-26T05:08:03.611Z,2.10
2019-03-26T05:09:15.341Z,2.10
2019-03-26T05:10:20.602Z,2.10
2019-03-26T05:11:25.707Z,2.20
2019-03-26T05:12:30.814Z,2.20
2019-03-26T05:13:35.971Z,2.20
2019-03-26T05:14:41.298Z,2.20
2019-03-26T05:15:46.440Z,2.20
2019-03-26T05:16:51.644Z,2.20
2019-03-26T05:17:57.028Z,2.20
2019-03-26T05:19:02.377Z,2.20
2019-03-26T05:20:08.297Z,2.20
2019-03-26T05:21:13.480Z,2.20
2019-03-26T05:22:24.165Z,2.30
2019-03-26T05:23:25.420Z,2.40
2019-03-26T05:24:30.503Z,2.40
2019-03-26T05:25:35.635Z,2.50
2019-03-26T05:26:40.812Z,2.50
2019-03-26T05:27:46.036Z,2.50
2019-03-26T05:28:52.263Z,2.50
2019-03-26T05:29:57.405Z,2.60
2019-03-26T05:31:02.518Z,2.60
2019-03-26T05:32:08.423Z,2.60
2019-03-26T05:33:13.595Z,2.70
2019-03-26T05:34:18.876Z,2.70
2019-03-26T05:35:24.024Z,2.70
2019-03-26T05:36:30.766Z,2.80
2019-03-26T05:37:36.008Z,2.80
2019-03-26T05:38:41.187Z,2.80
2019-03-26T05:39:46.303Z,2.80
2019-03-26T05:40:51.527Z,2.90
2019-03-26T05:41:56.727Z,3.00
2019-03-26T05:43:01.884Z,3.00
2019-03-26T05:44:06.993Z,3.00
2019-03-26T05:45:12.717Z,3.00
2019-03-26T05:46:18.092Z,3.10
2019-03-26T05:47:23.280Z,3.10
2019-03-26T05:48:28.389Z,3.10
2019-03-26T05:49:33.740Z,3.20
2019-03-26T05:50:38.963Z,3.20
2019-03-26T05:51:44.179Z,3.20
2019-03-26T05:52:49.357Z,3.20
2019-03-26T05:53:55.580Z,3.20
2019-03-26T05:55:00.695Z,3.20
2019-03-26T05:56:05.923Z,3.20
2019-03-26T05:57:11.093Z,3.20
2019-03-26T05:58:17.450Z,3.20
2019-03-26T05:59:22.633Z,3.20
2019-03-26T06:00:27.795Z,3.10
2019-03-26T06:01:32.923Z,3.20
2019-03-26T06:02:38.220Z,3.20
2019-03-26T06:03:43.432Z,3.30
2019-03-26T06:04:48.534Z,3.30
2019-03-26T06:05:53.680Z,3.30
2019-03-26T06:07:04.728Z,3.30
2019-03-26T06:08:05.638Z,3.30
2019-03-26T06:09:10.867Z,3.40
2019-03-26T06:10:16.534Z,3.30
2019-03-26T06:11:21.632Z,3.40
2019-03-26T06:12:27.235Z,3.40
2019-03-26T06:13:32.512Z,3.30
2019-03-26T06:14:37.631Z,3.30
2019-03-26T06:15:43.031Z,3.30
2019-03-26T06:16:48.177Z,3.30
2019-03-26T06:17:53.333Z,3.30
2019-03-26T06:18:58.404Z,3.40
2019-03-26T06:20:03.978Z,3.40
2019-03-26T06:21:09.149Z,3.40
2019-03-26T06:22:14.306Z,3.40
2019-03-26T06:23:19.461Z,3.40
2019-03-26T06:24:24.580Z,3.40
2019-03-26T06:25:30.739Z,3.40
2019-03-26T06:26:35.827Z,3.40
2019-03-26T06:27:40.994Z,3.40
2019-03-26T06:28:46.121Z,3.40
2019-03-26T06:29:51.287Z,3.50
2019-03-26T06:30:56.428Z,3.50
2019-03-26T06:32:01.669Z,3.50
2019-03-26T06:33:06.839Z,3.50
2019-03-26T06:34:11.947Z,3.60
2019-03-26T06:35:17.239Z,3.60
2019-03-26T06:36:22.483Z,3.70
2019-03-26T06:37:27.677Z,3.70
2019-03-26T06:38:32.743Z,3.70
2019-03-26T06:39:37.957Z,3.80
2019-03-26T06:40:43.225Z,3.80
2019-03-26T06:41:48.339Z,3.80
2019-03-26T06:42:55.278Z,3.90
2019-03-26T06:44:00.408Z,3.90
2019-03-26T06:45:07.413Z,4.00
2019-03-26T06:46:12.558Z,4.00
2019-03-26T06:47:17.644Z,4.10
2019-03-26T06:48:22.809Z,4.10
2019-03-26T06:49:27.897Z,4.10
2019-03-26T06:50:33.284Z,4.20
2019-03-26T06:51:38.397Z,4.20
2019-03-26T06:52:43.546Z,4.20
2019-03-26T06:53:48.719Z,4.30
2019-03-26T06:54:53.853Z,4.40
2019-03-26T06:55:58.995Z,4.40
2019-03-26T06:57:04.304Z,4.40
2019-03-26T06:58:09.433Z,4.50
2019-03-26T06:59:14.563Z,4.60
2019-03-26T07:00:29.961Z,4.60
2019-03-26T07:01:35.093Z,4.60
2019-03-26T07:02:40.401Z,4.60
2019-03-26T07:03:45.573Z,4.60
2019-03-26T07:04:50.876Z,4.60
2019-03-26T07:05:56.086Z,4.70
2019-03-26T07:07:01.437Z,4.70
2019-03-26T07:08:06.790Z,4.70
2019-03-26T07:09:11.967Z,4.70
2019-03-26T07:10:20.172Z,4.60
2019-03-26T07:11:25.279Z,4.70
2019-03-26T07:12:30.441Z,4.70
2019-03-26T07:13:35.576Z,4.70
2019-03-26T07:14:40.682Z,4.70
2019-03-26T07:15:45.801Z,4.70
2019-03-26T07:16:50.983Z,4.70
2019-03-26T07:17:56.286Z,4.70
2019-03-26T07:19:01.470Z,4.70
2019-03-26T07:20:08.311Z,4.70
2019-03-26T07:21:13.555Z,4.80
2019-03-26T07:22:18.950Z,4.80
2019-03-26T07:23:24.436Z,4.80
2019-03-26T07:24:29.583Z,4.80
2019-03-26T07:25:34.711Z,4.90
2019-03-26T07:26:39.948Z,4.90
2019-03-26T07:27:45.164Z,4.90
2019-03-26T07:28:50.358Z,4.90
2019-03-26T07:29:55.579Z,4.90
2019-03-26T07:31:00.720Z,4.90
2019-03-26T07:32:06.328Z,4.90
2019-03-26T07:33:11.590Z,4.90
2019-03-26T07:34:16.806Z,5.00
2019-03-26T07:35:22.076Z,5.00
2019-03-26T07:36:27.379Z,5.10
2019-03-26T07:37:44.546Z,5.10
2019-03-26T07:38:39.340Z,5.10
2019-03-26T07:39:44.484Z,5.10
2019-03-26T07:40:50.210Z,5.10
2019-03-26T07:41:55.406Z,5.20
2019-03-26T07:43:00.648Z,5.10
2019-03-26T07:44:06.819Z,5.20
2019-03-26T07:45:12.284Z,5.20
2019-03-26T07:46:17.494Z,5.20
2019-03-26T07:47:22.571Z,5.20
2019-03-26T07:48:27.703Z,5.20
2019-03-26T07:49:34.323Z,5.30
2019-03-26T07:50:39.523Z,5.30
2019-03-26T07:51:44.715Z,5.40
2019-03-26T07:52:51.191Z,5.70
2019-03-26T07:53:56.342Z,6.00
2019-03-26T07:55:01.469Z,6.30
2019-03-26T07:56:06.567Z,6.50
2019-03-26T07:57:12.690Z,6.70
2019-03-26T07:58:17.831Z,6.80
2019-03-26T07:59:23.156Z,6.90
2019-03-26T08:00:35.722Z,7.20
2019-03-26T08:01:40.827Z,7.50
2019-03-26T08:02:46.215Z,8.00
2019-03-26T08:03:51.387Z,8.50
2019-03-26T08:04:56.577Z,9.00
2019-03-26T08:06:02.108Z,9.30
2019-03-26T08:07:07.313Z,9.20
2019-03-26T08:08:13.503Z,9.20
2019-03-26T08:09:18.753Z,9.00
2019-03-26T08:10:23.887Z,8.70
2019-03-26T08:11:28.988Z,8.50
2019-03-26T08:12:34.078Z,8.60
2019-03-26T08:13:41.072Z,8.70
2019-03-26T08:14:46.085Z,8.60
2019-03-26T08:15:51.329Z,8.60
2019-03-26T08:16:56.527Z,8.40
2019-03-26T08:18:01.655Z,8.30
2019-03-26T08:19:06.752Z,8.20
2019-03-26T08:20:12.766Z,8.00
2019-03-26T08:21:18.131Z,7.90
2019-03-26T08:22:23.252Z,7.80
2019-03-26T08:23:28.461Z,7.80
2019-03-26T08:24:33.584Z,7.80
2019-03-26T08:25:38.682Z,7.80
2019-03-26T08:26:45.092Z,7.80
2019-03-26T08:27:50.180Z,7.80
2019-03-26T08:28:55.325Z,7.90
2019-03-26T08:30:00.514Z,7.90
2019-03-26T08:31:05.763Z,7.80
2019-03-26T08:32:11.006Z,7.80
2019-03-26T08:33:16.140Z,7.70
2019-03-26T08:34:21.317Z,7.70
2019-03-26T08:35:26.452Z,7.60
2019-03-26T08:36:31.619Z,7.80
2019-03-26T08:37:36.851Z,8.00
2019-03-26T08:38:42.163Z,8.20
2019-03-26T08:39:47.300Z,8.30
2019-03-26T08:40:53.477Z,8.50
2019-03-26T08:41:58.587Z,8.70
2019-03-26T08:43:04.068Z,8.80
2019-03-26T08:44:09.136Z,8.80
2019-03-26T08:45:14.542Z,9.00
2019-03-26T08:46:19.683Z,9.20
2019-03-26T08:47:24.880Z,9.40
2019-03-26T08:48:30.048Z,9.40
2019-03-26T08:49:35.159Z,9.50
2019-03-26T08:50:40.303Z,9.60
2019-03-26T08:51:45.525Z,9.60
2019-03-26T08:52:50.821Z,9.70
2019-03-26T08:53:55.976Z,9.60
2019-03-26T08:55:04.188Z,9.30
2019-03-26T08:56:07.912Z,9.00
2019-03-26T08:57:13.153Z,8.80
2019-03-26T08:58:18.344Z,8.60
2019-03-26T08:59:23.535Z,8.50
2019-03-26T09:00:31.808Z,8.40
2019-03-26T09:01:35.576Z,8.20
2019-03-26T09:02:40.850Z,8.10
2019-03-26T09:03:45.994Z,8.00
2019-03-26T09:04:51.176Z,7.90
2019-03-26T09:05:56.312Z,7.90
2019-03-26T09:07:01.524Z,7.90
2019-03-26T09:08:06.811Z,7.90
2019-03-26T09:09:11.948Z,7.90
2019-03-26T09:10:17.270Z,7.90
2019-03-26T09:11:22.430Z,7.80
2019-03-26T09:12:27.964Z,7.70
2019-03-26T09:13:33.172Z,7.70
2019-03-26T09:14:38.390Z,7.60
2019-03-26T09:15:43.652Z,7.60
2019-03-26T09:16:48.849Z,7.50
2019-03-26T09:17:54.131Z,7.50
2019-03-26T09:18:59.620Z,7.50
2019-03-26T09:20:05.163Z,7.40
2019-03-26T09:21:10.312Z,7.40
2019-03-26T09:22:15.928Z,7.30
2019-03-26T09:23:21.183Z,7.40
2019-03-26T09:24:26.323Z,7.40
2019-03-26T09:25:31.469Z,7.50
2019-03-26T09:26:36.579Z,7.50
2019-03-26T09:27:41.713Z,7.60
2019-03-26T09:28:48.061Z,7.60
2019-03-26T09:29:53.238Z,7.70
2019-03-26T09:30:58.392Z,7.80
2019-03-26T09:32:03.618Z,7.80
2019-03-26T09:33:08.772Z,7.80
2019-03-26T09:34:13.911Z,7.80
2019-03-26T09:35:19.025Z,7.80
2019-03-26T09:36:24.297Z,7.70
2019-03-26T09:37:29.443Z,7.60
2019-03-26T09:38:39.196Z,7.60
2019-03-26T09:39:41.378Z,7.50
2019-03-26T09:40:46.488Z,7.50
2019-03-26T09:41:51.648Z,7.40
2019-03-26T09:42:56.725Z,7.40
2019-03-26T09:44:03.829Z,7.40
2019-03-26T09:45:11.128Z,7.40
2019-03-26T09:46:17.945Z,7.40
2019-03-26T09:47:23.263Z,7.30
2019-03-26T09:48:28.369Z,7.30
2019-03-26T09:49:33.543Z,7.30
2019-03-26T09:50:38.905Z,7.30
2019-03-26T09:51:44.076Z,7.40
2019-03-26T09:52:49.227Z,7.50
2019-03-26T09:53:54.431Z,7.70
2019-03-26T09:54:59.964Z,7.90
2019-03-26T09:56:05.489Z,8.00
2019-03-26T09:57:10.710Z,8.10
2019-03-26T09:58:15.911Z,8.20
2019-03-26T09:59:21.295Z,8.20
2019-03-26T10:00:26.459Z,8.30
2019-03-26T10:01:31.672Z,8.30
2019-03-26T10:02:36.829Z,8.30
2019-03-26T10:03:42.005Z,8.40
2019-03-26T10:04:47.180Z,8.40
2019-03-26T10:05:52.328Z,8.40
2019-03-26T10:06:57.483Z,8.40
2019-03-26T10:08:02.689Z,8.40
2019-03-26T10:09:08.458Z,8.40
2019-03-26T10:10:16.195Z,8.50
2019-03-26T10:11:21.439Z,8.50
2019-03-26T10:12:26.588Z,8.40
2019-03-26T10:13:31.723Z,8.30
2019-03-26T10:14:36.899Z,8.30
2019-03-26T10:15:42.042Z,8.30
2019-03-26T10:16:47.210Z,8.20
2019-03-26T10:17:52.467Z,8.20
2019-03-26T10:18:57.831Z,8.10
2019-03-26T10:20:03.174Z,8.00
2019-03-26T10:21:08.290Z,8.00
2019-03-26T10:22:13.752Z,7.90
2019-03-26T10:23:18.892Z,7.80
2019-03-26T10:24:24.027Z,7.70
2019-03-26T10:25:29.235Z,7.60
2019-03-26T10:26:34.416Z,7.60
2019-03-26T10:27:39.708Z,7.60
2019-03-26T10:28:44.839Z,7.60
2019-03-26T10:29:50.026Z,7.70
2019-03-26T10:30:55.208Z,7.70
2019-03-26T10:32:00.377Z,7.90
2019-03-26T10:33:06.838Z,7.90
2019-03-26T10:34:12.147Z,8.00
2019-03-26T10:35:17.323Z,7.90
2019-03-26T10:36:23.191Z,7.90
2019-03-26T10:37:28.684Z,7.90
2019-03-26T10:38:33.909Z,7.90
2019-03-26T10:39:39.088Z,8.00
2019-03-26T10:40:45.232Z,8.00
2019-03-26T10:41:50.370Z,8.00
2019-03-26T10:42:55.487Z,8.00
2019-03-26T10:44:00.632Z,8.00
2019-03-26T10:45:07.558Z,8.00
2019-03-26T10:46:12.771Z,8.10
2019-03-26T10:47:17.914Z,8.20
2019-03-26T10:48:23.161Z,8.20
2019-03-26T10:49:28.281Z,8.30
2019-03-26T10:50:33.443Z,8.30
2019-03-26T10:51:38.579Z,8.30
2019-03-26T10:52:43.786Z,8.40
2019-03-26T10:53:48.946Z,8.30
2019-03-26T10:54:54.076Z,8.30
2019-03-26T10:55:59.223Z,8.30
2019-03-26T10:57:04.310Z,8.30
2019-03-26T10:58:09.413Z,8.30
2019-03-26T10:59:14.534Z,8.30
2019-03-26T11:00:20.088Z,8.20
2019-03-26T11:01:25.975Z,8.10
2019-03-26T11:02:31.103Z,8.00
2019-03-26T11:03:36.771Z,8.00
2019-03-26T11:04:41.967Z,8.00
2019-03-26T11:05:47.169Z,8.10
2019-03-26T11:06:52.304Z,8.10
2019-03-26T11:07:57.438Z,8.00
2019-03-26T11:09:04.066Z,8.10
2019-03-26T11:10:10.199Z,8.10
2019-03-26T11:11:15.315Z,8.00
2019-03-26T11:12:20.417Z,8.00
2019-03-26T11:13:25.514Z,8.00
2019-03-26T11:14:31.905Z,7.90
2019-03-26T11:15:37.168Z,7.90
2019-03-26T11:16:42.287Z,7.80
2019-03-26T11:17:47.380Z,7.80
2019-03-26T11:18:52.530Z,7.80
2019-03-26T11:19:57.619Z,7.90
2019-03-26T11:21:03.398Z,7.90
2019-03-26T11:22:08.677Z,8.10
2019-03-26T11:23:13.875Z,8.20
2019-03-26T11:24:19.077Z,8.30
2019-03-26T11:25:24.220Z,8.30
2019-03-26T11:26:29.409Z,8.40
2019-03-26T11:27:34.577Z,8.50
2019-03-26T11:28:39.800Z,8.60
2019-03-26T11:29:45.137Z,8.70
2019-03-26T11:30:50.545Z,8.70
2019-03-26T11:31:55.716Z,8.90
2019-03-26T11:33:01.789Z,8.80
2019-03-26T11:34:06.913Z,8.80
2019-03-26T11:35:12.272Z,8.80
2019-03-26T11:36:18.431Z,8.80
2019-03-26T11:37:23.596Z,8.70
2019-03-26T11:38:28.801Z,8.70
2019-03-26T11:39:34.802Z,8.70
2019-03-26T11:40:40.792Z,8.70
2019-03-26T11:41:45.942Z,8.70
2019-03-26T11:42:52.153Z,8.70
2019-03-26T11:43:57.293Z,8.70
2019-03-26T11:45:02.482Z,8.70
2019-03-26T11:46:07.610Z,8.70
2019-03-26T11:47:12.821Z,8.80
2019-03-26T11:48:17.938Z,8.80
2019-03-26T11:49:23.141Z,8.80
2019-03-26T11:50:28.364Z,8.70
2019-03-26T11:51:33.474Z,8.60
2019-03-26T11:52:38.684Z,8.50
2019-03-26T11:53:43.841Z,8.40
2019-03-26T11:54:49.016Z,8.20
2019-03-26T11:55:54.114Z,8.20
2019-03-26T11:56:59.271Z,8.10
2019-03-26T11:58:04.565Z,8.00
2019-03-26T11:59:09.680Z,8.00
2019-03-26T12:00:19.761Z,8.10
2019-03-26T12:01:24.924Z,8.00
2019-03-26T12:02:30.359Z,7.90
2019-03-26T12:03:35.620Z,7.90
2019-03-26T12:04:40.835Z,7.90
2019-03-26T12:05:45.960Z,7.80
2019-03-26T12:06:51.105Z,7.70
2019-03-26T12:07:56.195Z,7.80
2019-03-26T12:09:01.450Z,7.80
2019-03-26T12:10:09.621Z,7.80
2019-03-26T12:11:16.259Z,7.80
2019-03-26T12:12:21.675Z,7.80
2019-03-26T12:13:26.798Z,7.80
2019-03-26T12:14:31.993Z,7.80
2019-03-26T12:15:37.216Z,7.80
2019-03-26T12:16:42.570Z,7.70
2019-03-26T12:17:47.672Z,7.70
2019-03-26T12:18:52.922Z,7.70
2019-03-26T12:19:58.018Z,7.60
2019-03-26T12:21:03.335Z,7.50
2019-03-26T12:22:08.492Z,7.40
2019-03-26T12:23:13.603Z,7.40
2019-03-26T12:24:18.748Z,7.40
2019-03-26T12:25:23.976Z,7.40
2019-03-26T12:26:29.874Z,7.40
2019-03-26T12:27:36.517Z,7.30
2019-03-26T12:28:42.303Z,7.30
2019-03-26T12:29:47.486Z,7.30
2019-03-26T12:30:52.784Z,7.30
2019-03-26T12:31:58.622Z,7.20
2019-03-26T12:33:03.855Z,7.20
2019-03-26T12:34:09.105Z,7.10
2019-03-26T12:35:27.662Z,7.00
2019-03-26T12:36:39.780Z,6.90
2019-03-26T12:37:39.774Z,6.90
2019-03-26T12:38:45.237Z,6.80
2019-03-26T12:39:59.385Z,6.70
2019-03-26T12:40:57.273Z,6.70
2019-03-26T12:42:02.424Z,6.60
2019-03-26T12:43:07.523Z,6.60
2019-03-26T12:44:12.669Z,6.50
2019-03-26T12:45:17.776Z,6.50
2019-03-26T12:46:22.909Z,6.50
2019-03-26T12:47:28.014Z,6.60
2019-03-26T12:48:33.120Z,6.60
2019-03-26T12:49:38.271Z,6.60
2019-03-26T12:50:43.437Z,6.60
2019-03-26T12:51:48.698Z,6.50
2019-03-26T12:52:53.856Z,6.50
2019-03-26T12:53:58.972Z,6.40
2019-03-26T12:55:04.539Z,6.50
2019-03-26T12:56:09.703Z,6.60
2019-03-26T12:57:14.953Z,6.60
2019-03-26T12:58:30.978Z,6.70
2019-03-26T12:59:26.961Z,6.70
2019-03-26T13:00:33.385Z,6.70
2019-03-26T13:01:38.520Z,6.80
2019-03-26T13:02:43.658Z,6.90
2019-03-26T13:03:48.835Z,7.00
2019-03-26T13:04:54.080Z,7.00
2019-03-26T13:06:00.241Z,7.10
2019-03-26T13:07:05.411Z,7.20
2019-03-26T13:08:10.528Z,7.20
2019-03-26T13:09:15.699Z,7.30
2019-03-26T13:10:20.975Z,7.40
2019-03-26T13:11:26.204Z,7.50
2019-03-26T13:12:31.359Z,7.50
2019-03-26T13:13:36.503Z,7.50
2019-03-26T13:14:41.712Z,7.60
2019-03-26T13:15:46.865Z,7.50
2019-03-26T13:16:52.009Z,7.50
2019-03-26T13:17:57.099Z,7.40
2019-03-26T13:19:02.229Z,7.40
2019-03-26T13:20:07.674Z,7.40
2019-03-26T13:21:12.788Z,7.30
2019-03-26T13:22:17.918Z,7.30
2019-03-26T13:23:23.060Z,7.30
2019-03-26T13:24:28.200Z,7.30
2019-03-26T13:25:33.328Z,7.20
2019-03-26T13:26:38.481Z,7.20
2019-03-26T13:27:43.684Z,7.20
2019-03-26T13:28:48.929Z,7.10
2019-03-26T13:29:54.000Z,7.10
2019-03-26T13:30:59.205Z,7.00
2019-03-26T13:32:04.497Z,7.00
2019-03-26T13:33:09.763Z,7.00
2019-03-26T13:34:14.887Z,7.10
2019-03-26T13:35:20.486Z,7.10
2019-03-26T13:36:25.710Z,7.10
2019-03-26T13:37:30.938Z,7.10
2019-03-26T13:38:36.293Z,7.20
2019-03-26T13:39:41.687Z,7.20
2019-03-26T13:40:48.585Z,7.20
2019-03-26T13:41:53.677Z,7.20
2019-03-26T13:42:59.894Z,7.20
2019-03-26T13:44:05.088Z,7.20
2019-03-26T13:45:10.775Z,7.30
2019-03-26T13:46:17.334Z,7.30
2019-03-26T13:47:22.461Z,7.30
2019-03-26T13:48:27.936Z,7.40
2019-03-26T13:49:33.081Z,7.50
2019-03-26T13:50:38.367Z,7.40
2019-03-26T13:51:43.528Z,7.40
2019-03-26T13:52:48.668Z,7.40
2019-03-26T13:53:53.782Z,7.40
2019-03-26T13:54:58.926Z,7.50
2019-03-26T13:56:04.458Z,7.50
2019-03-26T13:57:09.685Z,7.50
2019-03-26T13:58:14.907Z,7.60
2019-03-26T13:59:20.172Z,7.60
2019-03-26T14:00:37.832Z,7.80
2019-03-26T14:01:43.738Z,7.90
2019-03-26T14:02:48.827Z,7.90
2019-03-26T14:03:53.947Z,8.00
2019-03-26T14:05:23.116Z,8.00
2019-03-26T14:06:28.283Z,8.00
2019-03-26T14:07:33.436Z,8.00
2019-03-26T14:08:38.619Z,8.00
2019-03-26T14:09:43.749Z,8.00
2019-03-26T14:10:49.233Z,8.10
2019-03-26T14:11:57.497Z,8.20
2019-03-26T14:13:01.297Z,8.20
2019-03-26T14:14:06.608Z,8.10
2019-03-26T14:15:12.056Z,8.10
2019-03-26T14:16:17.311Z,8.10
2019-03-26T14:17:22.956Z,8.10
2019-03-26T14:18:28.099Z,7.90
2019-03-26T14:19:33.371Z,7.90
2019-03-26T14:20:38.651Z,7.70
2019-03-26T14:21:45.029Z,7.60
2019-03-26T14:22:50.188Z,7.50
2019-03-26T14:23:55.550Z,7.40
2019-03-26T14:25:00.736Z,7.40
2019-03-26T14:26:05.935Z,7.30
2019-03-26T14:27:15.586Z,7.30
2019-03-26T14:28:20.737Z,7.30
2019-03-26T14:29:25.956Z,7.20
2019-03-26T14:30:47.010Z,7.10
2019-03-26T14:31:52.106Z,7.10